sensor_id;sensor_type;location;lat;lon;timestamp;pressure;altitude;pressure_sealevel;temperature;humidity
43621;BME280;29213;50.770;7.298;2024-03-17T00:01:44;101422.81;;;5.01;60.62
43621;BME280;29213;50.770;7.298;2024-03-17T00:04:09;101465.88;;;5.28;60.39
43621;BME280;29213;50.770;7.298;2024-03-17T00:06:35;101451.09;;;5.12;60.61
43621;BME280;29213;50.770;7.298;2024-03-17T00:09:00;101399.38;;;4.84;60.51
43621;BME280;29213;50.770;7.298;2024-03-17T00:11:32;101376.56;;;4.82;60.35
43621;BME280;29213;50.770;7.298;2024-03-17T00:13:58;101289.47;;;4.18;60.37
43621;BME280;29213;50.770;7.298;2024-03-17T00:16:23;101159.78;;;3.20;60.75
43621;BME280;29213;50.770;7.298;2024-03-17T00:18:48;101401.91;;;4.72;60.84
43621;BME280;29213;50.770;7.298;2024-03-17T00:21:14;101393.47;;;4.80;60.71
43621;BME280;29213;50.770;7.298;2024-03-17T00:23:39;101533.06;;;5.62;60.85
43621;BME280;29213;50.770;7.298;2024-03-17T00:26:05;101252.72;;;3.88;60.80
43621;BME280;29213;50.770;7.298;2024-03-17T00:28:30;101528.31;;;5.55;60.83
43621;BME280;29213;50.770;7.298;2024-03-17T00:30:56;101337.44;;;4.23;60.80
43621;BME280;29213;50.770;7.298;2024-03-17T00:33:21;101352.75;;;4.31;61.27
43621;BME280;29213;50.770;7.298;2024-03-17T00:35:46;101388.16;;;4.54;60.98
43621;BME280;29213;50.770;7.298;2024-03-17T00:38:12;101368.56;;;4.31;61.14
43621;BME280;29213;50.770;7.298;2024-03-17T00:40:38;101532.34;;;5.21;61.32
43621;BME280;29213;50.770;7.298;2024-03-17T00:43:04;101527.47;;;5.15;61.41
43621;BME280;29213;50.770;7.298;2024-03-17T00:45:29;101522.28;;;5.14;61.37
43621;BME280;29213;50.770;7.298;2024-03-17T00:47:55;101240.09;;;3.40;61.16
43621;BME280;29213;50.770;7.298;2024-03-17T00:50:20;101684.66;;;6.00;61.06
43621;BME280;29213;50.770;7.298;2024-03-17T00:52:46;101339.59;;;3.90;60.99
43621;BME280;29213;50.770;7.298;2024-03-17T00:55:11;101290.53;;;3.61;61.01
43621;BME280;29213;50.770;7.298;2024-03-17T00:57:37;101279.31;;;3.45;60.96
43621;BME280;29213;50.770;7.298;2024-03-17T01:00:06;101391.78;;;4.25;60.87
43621;BME280;29213;50.770;7.298;2024-03-17T01:02:32;101660.34;;;5.82;61.18
43621;BME280;29213;50.770;7.298;2024-03-17T01:04:57;101329.97;;;3.76;61.29
43621;BME280;29213;50.770;7.298;2024-03-17T01:07:23;101138.97;;;2.47;61.01
43621;BME280;29213;50.770;7.298;2024-03-17T01:09:48;101655.25;;;5.66;61.24
43621;BME280;29213;50.770;7.298;2024-03-17T01:12:14;101259.19;;;3.16;61.00
43621;BME280;29213;50.770;7.298;2024-03-17T01:14:39;101642.91;;;5.54;61.46
43621;BME280;29213;50.770;7.298;2024-03-17T01:17:05;101391.69;;;3.86;61.30
43621;BME280;29213;50.770;7.298;2024-03-17T01:19:31;101491.22;;;4.51;61.18
43621;BME280;29213;50.770;7.298;2024-03-17T01:21:57;101451.69;;;4.23;61.26
43621;BME280;29213;50.770;7.298;2024-03-17T01:24:23;101502.94;;;4.47;61.31
43621;BME280;29213;50.770;7.298;2024-03-17T01:26:49;101654.56;;;5.23;61.66
43621;BME280;29213;50.770;7.298;2024-03-17T01:29:15;101236.63;;;2.70;61.53
43621;BME280;29213;50.770;7.298;2024-03-17T01:31:40;101354.56;;;3.34;61.83
43621;BME280;29213;50.770;7.298;2024-03-17T01:34:06;101237.94;;;2.48;61.28
43621;BME280;29213;50.770;7.298;2024-03-17T01:36:31;101490.53;;;4.07;61.88
43621;BME280;29213;50.770;7.298;2024-03-17T01:38:57;101104.19;;;1.71;61.49
43621;BME280;29213;50.770;7.298;2024-03-17T01:41:22;101508.44;;;4.01;61.50
43621;BME280;29213;50.770;7.298;2024-03-17T01:43:48;101480.50;;;3.99;62.20
43621;BME280;29213;50.770;7.298;2024-03-17T01:46:15;101612.53;;;4.80;62.13
43621;BME280;29213;50.770;7.298;2024-03-17T01:48:42;101628.47;;;4.78;61.98
43621;BME280;29213;50.770;7.298;2024-03-17T01:51:10;101392.56;;;3.30;61.74
43621;BME280;29213;50.770;7.298;2024-03-17T01:53:37;101392.09;;;3.38;61.65
43621;BME280;29213;50.770;7.298;2024-03-17T01:56:04;101437.38;;;3.58;61.97
43621;BME280;29213;50.770;7.298;2024-03-17T01:58:30;101607.50;;;4.62;62.20
43621;BME280;29213;50.770;7.298;2024-03-17T02:00:56;101306.44;;;2.76;61.75
43621;BME280;29213;50.770;7.298;2024-03-17T02:03:22;101292.69;;;2.56;61.99
43621;BME280;29213;50.770;7.298;2024-03-17T02:05:47;101306.25;;;2.64;62.21
43621;BME280;29213;50.770;7.298;2024-03-17T02:08:13;101271.75;;;2.54;62.41
43621;BME280;29213;50.770;7.298;2024-03-17T02:10:38;101497.75;;;3.90;62.02
43621;BME280;29213;50.770;7.298;2024-03-17T02:13:04;101307.63;;;2.70;61.86
43621;BME280;29213;50.770;7.298;2024-03-17T02:15:31;101460.91;;;3.61;62.14
43621;BME280;29213;50.770;7.298;2024-03-17T02:17:57;101125.66;;;1.63;61.75
43621;BME280;29213;50.770;7.298;2024-03-17T02:20:23;101467.78;;;3.64;61.84
43621;BME280;29213;50.770;7.298;2024-03-17T02:23:08;101366.66;;;2.95;61.71
43621;BME280;29213;50.770;7.298;2024-03-17T02:25:33;101307.06;;;2.65;61.52
43621;BME280;29213;50.770;7.298;2024-03-17T02:27:59;101597.09;;;4.32;61.68
43621;BME280;29213;50.770;7.298;2024-03-17T02:30:25;101308.75;;;2.37;61.76
43621;BME280;29213;50.770;7.298;2024-03-17T02:32:54;101241.25;;;1.92;61.38
43621;BME280;29213;50.770;7.298;2024-03-17T02:35:24;101585.72;;;4.16;62.19
43621;BME280;29213;50.770;7.298;2024-03-17T02:37:50;101247.69;;;2.03;61.60
43621;BME280;29213;50.770;7.298;2024-03-17T02:40:15;101589.69;;;4.09;62.05
43621;BME280;29213;50.770;7.298;2024-03-17T02:42:42;101310.16;;;2.28;61.76
43621;BME280;29213;50.770;7.298;2024-03-17T02:45:11;101360.63;;;2.64;61.78
43621;BME280;29213;50.770;7.298;2024-03-17T02:47:40;101265.91;;;2.06;61.41
43621;BME280;29213;50.770;7.298;2024-03-17T02:50:07;101570.88;;;3.86;61.52
43621;BME280;29213;50.770;7.298;2024-03-17T02:52:32;101484.16;;;3.25;61.54
43621;BME280;29213;50.770;7.298;2024-03-17T02:54:59;101289.56;;;2.06;61.98
43621;BME280;29213;50.770;7.298;2024-03-17T02:57:25;101170.38;;;1.31;61.76
43621;BME280;29213;50.770;7.298;2024-03-17T02:59:54;101429.78;;;2.80;61.85
43621;BME280;29213;50.770;7.298;2024-03-17T03:02:20;101313.63;;;1.98;61.51
43621;BME280;29213;50.770;7.298;2024-03-17T03:04:45;101597.44;;;3.69;61.94
43621;BME280;29213;50.770;7.298;2024-03-17T03:07:10;101457.41;;;2.73;62.22
43621;BME280;29213;50.770;7.298;2024-03-17T03:09:36;101480.72;;;2.79;61.83
43621;BME280;29213;50.770;7.298;2024-03-17T03:12:01;101519.22;;;3.11;62.25
43621;BME280;29213;50.770;7.298;2024-03-17T03:14:30;101317.41;;;1.78;62.58
43621;BME280;29213;50.770;7.298;2024-03-17T03:16:57;101311.31;;;1.77;62.46
43621;BME280;29213;50.770;7.298;2024-03-17T03:19:23;101431.91;;;2.59;62.39
43621;BME280;29213;50.770;7.298;2024-03-17T03:21:49;101325.16;;;1.95;62.47
43621;BME280;29213;50.770;7.298;2024-03-17T03:24:15;101438.94;;;2.59;62.12
43621;BME280;29213;50.770;7.298;2024-03-17T03:26:41;101440.63;;;2.60;62.07
43621;BME280;29213;50.770;7.298;2024-03-17T03:29:06;101530.94;;;3.05;62.13
43621;BME280;29213;50.770;7.298;2024-03-17T03:31:33;101209.28;;;1.08;61.63
43621;BME280;29213;50.770;7.298;2024-03-17T03:33:59;101305.91;;;1.64;62.05
43621;BME280;29213;50.770;7.298;2024-03-17T03:36:27;101207.94;;;1.01;61.88
43621;BME280;29213;50.770;7.298;2024-03-17T03:38:53;101533.50;;;3.07;62.10
43621;BME280;29213;50.770;7.298;2024-03-17T03:41:18;101396.75;;;2.15;62.10
43621;BME280;29213;50.770;7.298;2024-03-17T03:43:44;101197.22;;;0.73;62.01
43621;BME280;29213;50.770;7.298;2024-03-17T03:46:12;101449.63;;;2.41;62.36
43621;BME280;29213;50.770;7.298;2024-03-17T03:48:37;101619.88;;;3.31;62.08
43621;BME280;29213;50.770;7.298;2024-03-17T03:51:06;101203.47;;;0.71;62.10
43621;BME280;29213;50.770;7.298;2024-03-17T03:53:33;101207.09;;;0.84;61.70
43621;BME280;29213;50.770;7.298;2024-03-17T03:55:59;101072.97;;;-0.05;61.99
43621;BME280;29213;50.770;7.298;2024-03-17T03:58:29;101397.03;;;1.78;62.01
43621;BME280;29213;50.770;7.298;2024-03-17T04:00:55;101360.94;;;1.82;62.23
43621;BME280;29213;50.770;7.298;2024-03-17T04:03:22;101280.97;;;1.25;61.74
43621;BME280;29213;50.770;7.298;2024-03-17T04:05:47;101276.72;;;1.22;61.94
43621;BME280;29213;50.770;7.298;2024-03-17T04:08:13;101148.91;;;0.45;61.61
43621;BME280;29213;50.770;7.298;2024-03-17T04:10:39;101584.28;;;3.09;62.02
43621;BME280;29213;50.770;7.298;2024-03-17T04:13:04;101152.56;;;0.43;61.90
43621;BME280;29213;50.770;7.298;2024-03-17T04:15:30;101279.88;;;1.13;62.04
43621;BME280;29213;50.770;7.298;2024-03-17T04:17:55;101161.50;;;0.38;62.15
43621;BME280;29213;50.770;7.298;2024-03-17T04:20:20;101293.84;;;1.13;62.46
43621;BME280;29213;50.770;7.298;2024-03-17T04:22:46;101445.94;;;2.13;62.42
43621;BME280;29213;50.770;7.298;2024-03-17T04:25:13;101345.13;;;1.51;62.34
43621;BME280;29213;50.770;7.298;2024-03-17T04:27:39;101145.25;;;0.16;61.40
43621;BME280;29213;50.770;7.298;2024-03-17T04:30:05;101487.28;;;2.25;61.83
43621;BME280;29213;50.770;7.298;2024-03-17T04:32:31;101377.81;;;1.61;62.23
43621;BME280;29213;50.770;7.298;2024-03-17T04:34:57;101575.53;;;2.78;61.71
43621;BME280;29213;50.770;7.298;2024-03-17T04:37:23;101582.91;;;2.71;62.26
43621;BME280;29213;50.770;7.298;2024-03-17T04:39:49;101430.50;;;1.74;62.05
43621;BME280;29213;50.770;7.298;2024-03-17T04:42:17;101572.66;;;2.66;61.95
43621;BME280;29213;50.770;7.298;2024-03-17T04:44:45;101463.22;;;1.85;61.67
43621;BME280;29213;50.770;7.298;2024-03-17T04:47:11;101510.97;;;2.09;61.89
43621;BME280;29213;50.770;7.298;2024-03-17T04:49:38;101419.94;;;1.60;61.86
43621;BME280;29213;50.770;7.298;2024-03-17T04:52:04;101558.69;;;2.50;62.14
43621;BME280;29213;50.770;7.298;2024-03-17T04:54:34;101096.56;;;-0.56;62.07
43621;BME280;29213;50.770;7.298;2024-03-17T04:57:00;101081.78;;;-0.57;62.40
43621;BME280;29213;50.770;7.298;2024-03-17T04:59:26;101562.69;;;2.41;62.67
43621;BME280;29213;50.770;7.298;2024-03-17T05:01:52;101207.47;;;0.28;62.18
43621;BME280;29213;50.770;7.298;2024-03-17T05:04:18;101149.06;;;-0.08;62.28
43621;BME280;29213;50.770;7.298;2024-03-17T05:06:44;101397.97;;;1.45;62.18
43621;BME280;29213;50.770;7.298;2024-03-17T05:09:22;101280.09;;;0.76;62.66
43621;BME280;29213;50.770;7.298;2024-03-17T05:11:50;101224.94;;;0.45;61.93
43621;BME280;29213;50.770;7.298;2024-03-17T05:14:17;101155.16;;;-0.07;61.95
43621;BME280;29213;50.770;7.298;2024-03-17T05:16:44;101548.59;;;2.42;62.36
43621;BME280;29213;50.770;7.298;2024-03-17T05:19:10;101261.38;;;0.50;62.28
43621;BME280;29213;50.770;7.298;2024-03-17T05:21:35;101126.22;;;-0.22;62.29
43621;BME280;29213;50.770;7.298;2024-03-17T05:24:01;101311.72;;;0.73;62.32
43621;BME280;29213;50.770;7.298;2024-03-17T05:26:27;101348.91;;;0.97;62.21
43621;BME280;29213;50.770;7.298;2024-03-17T05:28:53;101228.41;;;0.28;62.72
43621;BME280;29213;50.770;7.298;2024-03-17T05:31:19;101401.47;;;1.45;62.78
43621;BME280;29213;50.770;7.298;2024-03-17T05:33:47;101243.41;;;0.42;62.63
43621;BME280;29213;50.770;7.298;2024-03-17T05:36:12;101566.06;;;2.43;62.88
43621;BME280;29213;50.770;7.298;2024-03-17T05:38:37;101414.84;;;1.57;63.03
43621;BME280;29213;50.770;7.298;2024-03-17T05:41:05;101170.78;;;-0.06;62.79
43621;BME280;29213;50.770;7.298;2024-03-17T05:43:33;101554.00;;;2.55;63.23
43621;BME280;29213;50.770;7.298;2024-03-17T05:46:01;101099.28;;;-0.24;63.31
43621;BME280;29213;50.770;7.298;2024-03-17T05:48:28;101519.78;;;2.24;63.46
43621;BME280;29213;50.770;7.298;2024-03-17T05:50:53;101174.28;;;0.11;63.66
43621;BME280;29213;50.770;7.298;2024-03-17T05:53:20;101560.13;;;2.55;63.67
43621;BME280;29213;50.770;7.298;2024-03-17T05:55:46;101425.53;;;1.70;64.22
43621;BME280;29213;50.770;7.298;2024-03-17T05:58:12;101133.59;;;-0.13;63.40
43621;BME280;29213;50.770;7.298;2024-03-17T06:00:39;101201.34;;;0.27;63.52
43621;BME280;29213;50.770;7.298;2024-03-17T06:03:05;101544.34;;;2.39;64.04
43621;BME280;29213;50.770;7.298;2024-03-17T06:05:34;101574.38;;;2.51;63.67
43621;BME280;29213;50.770;7.298;2024-03-17T06:08:04;101532.56;;;2.47;64.28
43621;BME280;29213;50.770;7.298;2024-03-17T06:10:31;101262.44;;;0.79;63.30
43621;BME280;29213;50.770;7.298;2024-03-17T06:12:57;101563.06;;;2.65;63.64
43621;BME280;29213;50.770;7.298;2024-03-17T06:15:24;101360.63;;;1.24;63.48
43621;BME280;29213;50.770;7.298;2024-03-17T06:17:50;101571.25;;;2.61;63.69
43621;BME280;29213;50.770;7.298;2024-03-17T06:20:20;101178.75;;;0.43;63.16
43621;BME280;29213;50.770;7.298;2024-03-17T06:22:45;101508.63;;;2.51;63.96
43621;BME280;29213;50.770;7.298;2024-03-17T06:25:12;101305.50;;;1.24;64.03
43621;BME280;29213;50.770;7.298;2024-03-17T06:27:37;101230.81;;;0.99;63.91
43621;BME280;29213;50.770;7.298;2024-03-17T06:30:03;101539.41;;;2.96;63.64
43621;BME280;29213;50.770;7.298;2024-03-17T06:32:33;101277.84;;;1.34;63.86
43621;BME280;29213;50.770;7.298;2024-03-17T06:35:02;101215.97;;;0.81;64.16
43621;BME280;29213;50.770;7.298;2024-03-17T06:37:28;101162.00;;;0.61;64.03
43621;BME280;29213;50.770;7.298;2024-03-17T06:39:53;101274.28;;;1.35;64.39
43621;BME280;29213;50.770;7.298;2024-03-17T06:42:19;101524.56;;;3.09;64.55
43621;BME280;29213;50.770;7.298;2024-03-17T06:44:44;101214.09;;;1.16;63.80
43621;BME280;29213;50.770;7.298;2024-03-17T06:47:10;101379.50;;;2.25;64.17
43621;BME280;29213;50.770;7.298;2024-03-17T06:49:35;101517.16;;;3.16;64.04
43621;BME280;29213;50.770;7.298;2024-03-17T06:52:01;101424.31;;;2.69;64.08
43621;BME280;29213;50.770;7.298;2024-03-17T06:54:26;101410.31;;;2.54;64.24
43621;BME280;29213;50.770;7.298;2024-03-17T06:56:52;101461.78;;;3.03;64.19
43621;BME280;29213;50.770;7.298;2024-03-17T06:59:17;101518.13;;;3.59;64.21
43621;BME280;29213;50.770;7.298;2024-03-17T07:01:43;101505.91;;;3.43;63.80
43621;BME280;29213;50.770;7.298;2024-03-17T07:04:10;101452.75;;;3.37;63.68
43621;BME280;29213;50.770;7.298;2024-03-17T07:06:36;101421.16;;;3.37;63.79
43621;BME280;29213;50.770;7.298;2024-03-17T07:09:02;101480.25;;;3.74;63.46
43621;BME280;29213;50.770;7.298;2024-03-17T07:11:27;101437.28;;;3.59;63.36
43621;BME280;29213;50.770;7.298;2024-03-17T07:13:53;101420.09;;;3.54;63.06
43621;BME280;29213;50.770;7.298;2024-03-17T07:16:18;101338.28;;;3.00;63.39
43621;BME280;29213;50.770;7.298;2024-03-17T07:18:44;101439.09;;;3.59;63.24
43621;BME280;29213;50.770;7.298;2024-03-17T07:21:09;101296.56;;;2.79;62.77
43621;BME280;29213;50.770;7.298;2024-03-17T07:23:35;101487.84;;;3.94;62.97
43621;BME280;29213;50.770;7.298;2024-03-17T07:26:02;101432.00;;;3.74;62.70
43621;BME280;29213;50.770;7.298;2024-03-17T07:28:30;101481.69;;;4.08;62.90
43621;BME280;29213;50.770;7.298;2024-03-17T07:30:59;101444.88;;;4.06;62.95
43621;BME280;29213;50.770;7.298;2024-03-17T07:33:28;101443.88;;;4.22;62.72
43621;BME280;29213;50.770;7.298;2024-03-17T07:35:58;101507.25;;;4.62;62.71
43621;BME280;29213;50.770;7.298;2024-03-17T07:38:26;101502.72;;;4.77;62.79
43621;BME280;29213;50.770;7.298;2024-03-17T07:41:04;101506.25;;;5.04;62.37
43621;BME280;29213;50.770;7.298;2024-03-17T07:43:35;101491.56;;;5.26;61.88
43621;BME280;29213;50.770;7.298;2024-03-17T07:46:08;101379.34;;;4.27;61.32
43621;BME280;29213;50.770;7.298;2024-03-17T07:48:39;101497.28;;;5.19;61.52
43621;BME280;29213;50.770;7.298;2024-03-17T07:51:06;101297.53;;;3.88;61.21
43621;BME280;29213;50.770;7.298;2024-03-17T07:53:33;101511.84;;;5.38;61.36
43621;BME280;29213;50.770;7.298;2024-03-17T07:56:06;101516.16;;;5.52;61.28
43621;BME280;29213;50.770;7.298;2024-03-17T07:58:33;101304.75;;;4.38;60.92
43621;BME280;29213;50.770;7.298;2024-03-17T08:01:03;101424.97;;;5.46;60.97
43621;BME280;29213;50.770;7.298;2024-03-17T08:03:33;101515.03;;;6.18;60.40
43621;BME280;29213;50.770;7.298;2024-03-17T08:05:59;101494.09;;;6.15;60.41
43621;BME280;29213;50.770;7.298;2024-03-17T08:08:26;101520.00;;;6.23;59.40
43621;BME280;29213;50.770;7.298;2024-03-17T08:10:52;101522.75;;;6.21;59.41
43621;BME280;29213;50.770;7.298;2024-03-17T08:13:17;101349.38;;;5.19;59.18
43621;BME280;29213;50.770;7.298;2024-03-17T08:15:44;101410.13;;;5.19;59.16
43621;BME280;29213;50.770;7.298;2024-03-17T08:18:11;101521.78;;;5.85;60.17
43621;BME280;29213;50.770;7.298;2024-03-17T08:20:41;101440.91;;;5.58;59.92
43621;BME280;29213;50.770;7.298;2024-03-17T08:23:09;101416.81;;;5.36;59.38
43621;BME280;29213;50.770;7.298;2024-03-17T08:25:36;101503.88;;;6.01;59.49
43621;BME280;29213;50.770;7.298;2024-03-17T08:28:02;101142.81;;;3.91;59.38
43621;BME280;29213;50.770;7.298;2024-03-17T08:30:28;101453.47;;;6.16;58.67
43621;BME280;29213;50.770;7.298;2024-03-17T08:32:55;101384.97;;;5.88;58.02
43621;BME280;29213;50.770;7.298;2024-03-17T08:35:21;101467.22;;;6.46;57.94
43621;BME280;29213;50.770;7.298;2024-03-17T08:37:46;101433.06;;;6.29;57.52
43621;BME280;29213;50.770;7.298;2024-03-17T08:40:12;101496.81;;;6.87;57.16
43621;BME280;29213;50.770;7.298;2024-03-17T08:42:39;101493.28;;;6.75;56.83
43621;BME280;29213;50.770;7.298;2024-03-17T08:45:05;101403.47;;;5.88;56.82
43621;BME280;29213;50.770;7.298;2024-03-17T08:47:30;101442.28;;;5.88;57.45
43621;BME280;29213;50.770;7.298;2024-03-17T08:49:56;101411.50;;;5.62;58.26
43621;BME280;29213;50.770;7.298;2024-03-17T08:52:23;101464.00;;;6.05;58.21
43621;BME280;29213;50.770;7.298;2024-03-17T08:54:49;101480.03;;;6.39;57.44
43621;BME280;29213;50.770;7.298;2024-03-17T08:57:17;100848.81;;;2.48;57.33
43621;BME280;29213;50.770;7.298;2024-03-17T08:59:45;101428.34;;;6.46;57.45
43621;BME280;29213;50.770;7.298;2024-03-17T09:02:13;101444.03;;;6.61;57.35
43621;BME280;29213;50.770;7.298;2024-03-17T09:04:40;101446.59;;;6.38;57.46
43621;BME280;29213;50.770;7.298;2024-03-17T09:07:06;101448.97;;;6.65;57.21
43621;BME280;29213;50.770;7.298;2024-03-17T09:09:31;101372.78;;;6.46;57.55
43621;BME280;29213;50.770;7.298;2024-03-17T09:11:57;101459.03;;;7.19;56.34
43621;BME280;29213;50.770;7.298;2024-03-17T09:14:22;101466.50;;;7.48;55.85
43621;BME280;29213;50.770;7.298;2024-03-17T09:16:48;101356.09;;;6.91;56.07
43621;BME280;29213;50.770;7.298;2024-03-17T09:19:13;101240.94;;;6.63;56.22
43621;BME280;29213;50.770;7.298;2024-03-17T09:21:39;101234.22;;;6.59;54.65
43621;BME280;29213;50.770;7.298;2024-03-17T09:24:06;101444.81;;;7.98;54.98
43621;BME280;29213;50.770;7.298;2024-03-17T09:26:33;101415.34;;;7.80;53.95
43621;BME280;29213;50.770;7.298;2024-03-17T09:29:00;101265.44;;;7.11;54.74
43621;BME280;29213;50.770;7.298;2024-03-17T09:31:25;101422.66;;;7.88;54.13
43621;BME280;29213;50.770;7.298;2024-03-17T09:33:51;101391.47;;;7.80;54.48
43621;BME280;29213;50.770;7.298;2024-03-17T09:36:16;101306.59;;;7.15;54.31
43621;BME280;29213;50.770;7.298;2024-03-17T09:38:43;101444.66;;;8.23;53.67
43621;BME280;29213;50.770;7.298;2024-03-17T09:41:20;101361.13;;;7.73;53.37
43621;BME280;29213;50.770;7.298;2024-03-17T09:43:47;101403.16;;;8.22;53.00
43621;BME280;29213;50.770;7.298;2024-03-17T09:46:13;101378.06;;;8.47;52.31
43621;BME280;29213;50.770;7.298;2024-03-17T09:48:39;101452.09;;;9.24;51.59
43621;BME280;29213;50.770;7.298;2024-03-17T09:51:05;101440.53;;;9.35;51.34
43621;BME280;29213;50.770;7.298;2024-03-17T09:53:32;101460.09;;;9.65;51.33
43621;BME280;29213;50.770;7.298;2024-03-17T09:56:01;101454.41;;;9.70;50.40
43621;BME280;29213;50.770;7.298;2024-03-17T09:58:28;101460.94;;;9.56;49.76
43621;BME280;29213;50.770;7.298;2024-03-17T10:00:53;101197.09;;;7.89;50.70
43621;BME280;29213;50.770;7.298;2024-03-17T10:06:31;101452.88;;;9.87;49.17
43621;BME280;29213;50.770;7.298;2024-03-17T10:08:58;101417.53;;;9.65;50.13
43621;BME280;29213;50.770;7.298;2024-03-17T10:11:34;101294.69;;;9.01;49.78
43621;BME280;29213;50.770;7.298;2024-03-17T10:14:04;101454.88;;;10.14;49.24
43621;BME280;29213;50.770;7.298;2024-03-17T10:16:31;101456.38;;;9.97;47.97
43621;BME280;29213;50.770;7.298;2024-03-17T10:21:48;101457.38;;;9.96;49.11
43621;BME280;29213;50.770;7.298;2024-03-17T10:24:22;101460.16;;;10.05;49.91
43621;BME280;29213;50.770;7.298;2024-03-17T10:31:54;101452.06;;;10.36;49.40
43621;BME280;29213;50.770;7.298;2024-03-17T10:34:21;101447.00;;;10.13;48.33
43621;BME280;29213;50.770;7.298;2024-03-17T10:37:05;101362.13;;;9.90;48.67
43621;BME280;29213;50.770;7.298;2024-03-17T10:39:31;101358.34;;;10.02;48.47
43621;BME280;29213;50.770;7.298;2024-03-17T10:42:00;101443.03;;;10.76;48.46
43621;BME280;29213;50.770;7.298;2024-03-17T10:44:31;101446.69;;;10.75;47.60
43621;BME280;29213;50.770;7.298;2024-03-17T10:46:58;101395.84;;;10.39;48.02
43621;BME280;29213;50.770;7.298;2024-03-17T10:49:31;101376.47;;;10.47;47.73
43621;BME280;29213;50.770;7.298;2024-03-17T10:52:02;101373.69;;;10.48;46.37
43621;BME280;29213;50.770;7.298;2024-03-17T10:54:30;101307.03;;;10.20;47.22
43621;BME280;29213;50.770;7.298;2024-03-17T10:56:57;101306.34;;;10.18;47.37
43621;BME280;29213;50.770;7.298;2024-03-17T10:59:42;101420.00;;;10.85;46.68
43621;BME280;29213;50.770;7.298;2024-03-17T11:02:25;101446.25;;;10.90;46.68
43621;BME280;29213;50.770;7.298;2024-03-17T11:04:55;101438.94;;;10.72;47.13
43621;BME280;29213;50.770;7.298;2024-03-17T11:07:22;101421.84;;;10.85;47.58
43621;BME280;29213;50.770;7.298;2024-03-17T11:09:50;101354.44;;;10.64;47.27
43621;BME280;29213;50.770;7.298;2024-03-17T11:12:42;101439.06;;;11.28;46.93
43621;BME280;29213;50.770;7.298;2024-03-17T11:17:47;101334.13;;;10.06;47.10
43621;BME280;29213;50.770;7.298;2024-03-17T11:20:15;101330.03;;;10.11;47.25
43621;BME280;29213;50.770;7.298;2024-03-17T11:22:42;101449.19;;;10.87;47.45
43621;BME280;29213;50.770;7.298;2024-03-17T11:27:52;101367.63;;;10.56;46.98
43621;BME280;29213;50.770;7.298;2024-03-17T11:39:09;101401.59;;;12.12;44.63
43621;BME280;29213;50.770;7.298;2024-03-17T11:41:42;101365.00;;;12.05;44.77
43621;BME280;29213;50.770;7.298;2024-03-17T11:44:25;101333.25;;;12.20;44.98
43621;BME280;29213;50.770;7.298;2024-03-17T11:51:54;101418.44;;;13.54;43.33
43621;BME280;29213;50.770;7.298;2024-03-17T11:54:22;101417.47;;;13.80;43.02
43621;BME280;29213;50.770;7.298;2024-03-17T11:56:50;101294.97;;;13.23;43.26
43621;BME280;29213;50.770;7.298;2024-03-17T11:59:17;101407.56;;;13.55;41.43
43621;BME280;29213;50.770;7.298;2024-03-17T12:01:47;101326.19;;;13.15;43.11
43621;BME280;29213;50.770;7.298;2024-03-17T12:04:16;101389.53;;;13.66;42.62
43621;BME280;29213;50.770;7.298;2024-03-17T12:06:52;101282.56;;;13.06;43.03
43621;BME280;29213;50.770;7.298;2024-03-17T12:09:28;101382.34;;;13.66;43.12
43621;BME280;29213;50.770;7.298;2024-03-17T12:12:06;101375.75;;;13.44;42.51
43621;BME280;29213;50.770;7.298;2024-03-17T12:14:32;101314.09;;;12.94;43.42
43621;BME280;29213;50.770;7.298;2024-03-17T12:17:03;101372.41;;;13.42;43.34
43621;BME280;29213;50.770;7.298;2024-03-17T12:19:29;101304.88;;;12.96;42.75
43621;BME280;29213;50.770;7.298;2024-03-17T12:21:56;101377.66;;;13.60;42.21
43621;BME280;29213;50.770;7.298;2024-03-17T12:24:24;101384.03;;;13.84;42.01
43621;BME280;29213;50.770;7.298;2024-03-17T12:26:51;101369.28;;;13.80;41.82
43621;BME280;29213;50.770;7.298;2024-03-17T12:32:05;101299.50;;;13.48;42.17
43621;BME280;29213;50.770;7.298;2024-03-17T12:34:34;101301.28;;;13.06;42.06
43621;BME280;29213;50.770;7.298;2024-03-17T12:37:00;101337.69;;;13.67;42.52
43621;BME280;29213;50.770;7.298;2024-03-17T12:39:30;101347.88;;;13.96;41.72
43621;BME280;29213;50.770;7.298;2024-03-17T12:42:25;101233.94;;;13.19;41.17
43621;BME280;29213;50.770;7.298;2024-03-17T12:44:55;101344.19;;;13.89;41.32
43621;BME280;29213;50.770;7.298;2024-03-17T12:47:23;101262.75;;;13.67;41.57
43621;BME280;29213;50.770;7.298;2024-03-17T12:49:50;101151.19;;;13.17;42.11
43621;BME280;29213;50.770;7.298;2024-03-17T12:54:45;101159.13;;;12.67;42.42
43621;BME280;29213;50.770;7.298;2024-03-17T12:57:20;101236.28;;;13.14;42.08
43621;BME280;29213;50.770;7.298;2024-03-17T13:00:17;101269.81;;;13.00;41.81
43621;BME280;29213;50.770;7.298;2024-03-17T13:03:05;101216.50;;;12.38;43.13
43621;BME280;29213;50.770;7.298;2024-03-17T13:05:35;101246.72;;;12.39;43.70
43621;BME280;29213;50.770;7.298;2024-03-17T13:08:01;101212.22;;;12.54;44.78
43621;BME280;29213;50.770;7.298;2024-03-17T13:10:29;101314.84;;;13.21;42.81
43621;BME280;29213;50.770;7.298;2024-03-17T13:15:29;101313.34;;;13.10;43.87
43621;BME280;29213;50.770;7.298;2024-03-17T13:17:59;101304.31;;;13.11;44.29
43621;BME280;29213;50.770;7.298;2024-03-17T13:20:25;101297.22;;;13.02;43.34
43621;BME280;29213;50.770;7.298;2024-03-17T13:22:50;101206.16;;;12.35;43.66
43621;BME280;29213;50.770;7.298;2024-03-17T13:25:17;101258.47;;;12.98;43.82
43621;BME280;29213;50.770;7.298;2024-03-17T13:27:44;101273.03;;;12.68;43.44
43621;BME280;29213;50.770;7.298;2024-03-17T13:30:14;101255.69;;;12.64;44.56
43621;BME280;29213;50.770;7.298;2024-03-17T13:32:40;101178.75;;;12.33;44.72
43621;BME280;29213;50.770;7.298;2024-03-17T13:35:20;101271.13;;;12.87;43.62
43621;BME280;29213;50.770;7.298;2024-03-17T13:37:46;101263.97;;;12.96;44.10